createdAt,value
2016-12-16T00:00:36.731Z,0
2016-12-16T00:01:36.701Z,0
2016-12-16T00:02:36.685Z,0
2016-12-16T00:03:36.671Z,0
2016-12-16T00:04:36.643Z,0
2016-12-16T00:05:36.628Z,0
2016-12-16T00:06:36.915Z,0
2016-12-16T00:07:36.589Z,0
2016-12-16T00:08:36.572Z,0
2016-12-16T00:09:36.848Z,0
2016-12-16T00:10:36.514Z,0
2016-12-16T00:11:36.808Z,0
2016-12-16T00:12:36.478Z,0
2016-12-16T00:13:36.485Z,0
2016-12-16T00:14:36.742Z,0
2016-12-16T00:15:36.412Z,0
2016-12-16T00:16:36.706Z,0
2016-12-16T00:17:36.368Z,0
2016-12-16T00:18:36.972Z,0
2016-12-16T00:19:36.531Z,0
2016-12-16T00:20:36.305Z,0
2016-12-16T00:21:36.280Z,0
2016-12-16T00:22:36.579Z,0
2016-12-16T00:23:36.242Z,0
2016-12-16T00:24:36.226Z,0
2016-12-16T00:25:36.197Z,0
2016-12-16T00:26:36.179Z,0
2016-12-16T00:27:36.159Z,0
2016-12-16T00:28:36.175Z,0
2016-12-16T00:29:36.113Z,0
2016-12-16T00:30:36.099Z,0
2016-12-16T00:31:36.071Z,0
2016-12-16T00:32:36.056Z,0
2016-12-16T00:33:36.343Z,0
2016-12-16T00:34:36.322Z,0
2016-12-16T00:35:35.988Z,0
2016-12-16T00:36:36.278Z,0
2016-12-16T00:37:36.261Z,0
2016-12-16T00:38:35.928Z,0
2016-12-16T00:39:36.217Z,0
2016-12-16T00:40:35.884Z,0
2016-12-16T00:41:36.179Z,0
2016-12-16T00:42:35.848Z,0
2016-12-16T00:43:35.815Z,0
2016-12-16T00:44:35.803Z,0
2016-12-16T00:45:36.095Z,0
2016-12-16T00:46:35.755Z,0
2016-12-16T00:47:35.735Z,0
2016-12-16T00:48:35.722Z,0
2016-12-16T00:49:35.691Z,0
2016-12-16T00:50:35.671Z,0
2016-12-16T00:51:35.964Z,0
2016-12-16T00:52:35.632Z,0
2016-12-16T00:53:35.607Z,0
2016-12-16T00:54:35.584Z,0
2016-12-16T00:55:35.565Z,0
2016-12-16T00:56:35.548Z,0
2016-12-16T00:57:35.527Z,0
2016-12-16T00:58:35.498Z,0
2016-12-16T00:59:35.485Z,0
2016-12-16T01:00:35.456Z,0
2016-12-16T01:01:35.452Z,0
2016-12-16T01:02:35.733Z,0
2016-12-16T01:03:35.704Z,0
2016-12-16T01:04:35.371Z,0
2016-12-16T01:05:35.353Z,0
2016-12-16T01:06:35.647Z,0
2016-12-16T01:07:35.686Z,0
2016-12-16T01:08:35.308Z,0
2016-12-16T01:09:35.284Z,0
2016-12-16T01:10:35.260Z,0
2016-12-16T01:11:35.234Z,0
2016-12-16T01:12:35.541Z,0
2016-12-16T01:13:35.496Z,0
2016-12-16T01:14:35.167Z,0
2016-12-16T01:15:35.140Z,0
2016-12-16T01:16:35.120Z,0
2016-12-16T01:17:35.095Z,0
2016-12-16T01:18:35.077Z,0
2016-12-16T01:19:35.058Z,0
2016-12-16T01:20:35.026Z,0
2016-12-16T01:21:35.011Z,0
2016-12-16T01:22:34.987Z,0
2016-12-16T01:23:34.967Z,0
2016-12-16T01:24:34.950Z,0
2016-12-16T01:25:34.929Z,0
2016-12-16T01:26:34.904Z,0
2016-12-16T01:27:34.884Z,0
2016-12-16T01:28:34.854Z,0
2016-12-16T01:29:34.842Z,0
2016-12-16T01:30:34.814Z,0
2016-12-16T01:31:35.118Z,0
2016-12-16T01:32:34.773Z,0
2016-12-16T01:33:34.763Z,0
2016-12-16T01:34:35.041Z,0
2016-12-16T01:35:34.705Z,0
2016-12-16T01:36:34.685Z,0
2016-12-16T01:37:35.006Z,0
2016-12-16T01:38:34.646Z,0
2016-12-16T01:39:34.627Z,0
2016-12-16T01:40:34.602Z,0
2016-12-16T01:41:34.583Z,0
2016-12-16T01:42:34.555Z,0
2016-12-16T01:43:34.544Z,0
2016-12-16T01:44:34.833Z,0
2016-12-16T01:45:34.498Z,0
2016-12-16T01:46:34.777Z,0
2016-12-16T01:47:35.079Z,0
2016-12-16T01:48:34.432Z,0
2016-12-16T01:49:34.440Z,0
2016-12-16T01:50:34.381Z,0
2016-12-16T01:51:34.677Z,0
2016-12-16T01:52:34.658Z,0
2016-12-16T01:53:34.328Z,0
2016-12-16T01:54:34.295Z,0
2016-12-16T01:55:34.286Z,0
2016-12-16T01:56:34.256Z,0
2016-12-16T01:57:34.230Z,0
2016-12-16T01:58:34.216Z,0
2016-12-16T01:59:34.207Z,0
2016-12-16T02:00:34.168Z,0
2016-12-16T02:01:34.160Z,0
2016-12-16T02:02:34.455Z,0
2016-12-16T02:03:34.109Z,0
2016-12-16T02:04:34.078Z,0
2016-12-16T02:05:34.374Z,0
2016-12-16T02:06:34.034Z,0
2016-12-16T02:07:34.020Z,0
2016-12-16T02:08:34.001Z,0
2016-12-16T02:09:33.976Z,0
2016-12-16T02:10:33.953Z,0
2016-12-16T02:11:34.250Z,0
2016-12-16T02:12:33.906Z,0
2016-12-16T02:13:33.894Z,0
2016-12-16T02:14:33.868Z,0
2016-12-16T02:15:34.158Z,0
2016-12-16T02:16:33.825Z,0
2016-12-16T02:17:33.798Z,0
2016-12-16T02:18:34.090Z,0
2016-12-16T02:19:33.961Z,0
2016-12-16T02:20:33.734Z,0
2016-12-16T02:21:33.709Z,0
2016-12-16T02:22:33.691Z,0
2016-12-16T02:23:33.668Z,0
2016-12-16T02:24:33.956Z,0
2016-12-16T02:25:33.624Z,0
2016-12-16T02:26:33.606Z,0
2016-12-16T02:27:33.888Z,0
2016-12-16T02:28:33.876Z,0
2016-12-16T02:29:33.850Z,0
2016-12-16T02:30:33.552Z,0
2016-12-16T02:31:33.825Z,0
2016-12-16T02:32:33.475Z,0
2016-12-16T02:33:33.765Z,0
2016-12-16T02:34:33.745Z,0
2016-12-16T02:35:33.412Z,0
2016-12-16T02:36:33.391Z,0
2016-12-16T02:37:33.686Z,0
2016-12-16T02:38:33.348Z,0
2016-12-16T02:39:33.320Z,0
2016-12-16T02:40:33.301Z,0
2016-12-16T02:41:33.275Z,0
2016-12-16T02:42:33.252Z,0
2016-12-16T02:43:33.233Z,0
2016-12-16T02:44:33.209Z,0
2016-12-16T02:45:33.191Z,0
2016-12-16T02:46:33.519Z,0
2016-12-16T02:47:33.147Z,0
2016-12-16T02:48:33.120Z,0
2016-12-16T02:49:33.101Z,0
2016-12-16T02:50:33.079Z,0
2016-12-16T02:51:33.062Z,0
2016-12-16T02:52:33.041Z,0
2016-12-16T02:53:33.012Z,0
2016-12-16T02:54:33.301Z,0
2016-12-16T02:55:32.975Z,0
2016-12-16T02:56:33.260Z,0
2016-12-16T02:57:32.927Z,0
2016-12-16T02:58:32.904Z,0
2016-12-16T02:59:32.879Z,0
2016-12-16T03:00:32.861Z,0
2016-12-16T03:01:32.841Z,0
2016-12-16T03:02:32.820Z,0
2016-12-16T03:03:32.799Z,0
2016-12-16T03:04:32.774Z,0
2016-12-16T03:05:33.065Z,0
2016-12-16T03:06:32.736Z,0
2016-12-16T03:07:32.702Z,0
2016-12-16T03:08:33.000Z,0
2016-12-16T03:09:32.986Z,0
2016-12-16T03:10:32.641Z,0
2016-12-16T03:11:32.938Z,0
2016-12-16T03:12:32.600Z,0
2016-12-16T03:13:32.891Z,0
2016-12-16T03:14:32.556Z,0
2016-12-16T03:15:32.532Z,0
2016-12-16T03:16:32.825Z,0
2016-12-16T03:17:32.485Z,0
2016-12-16T03:18:32.466Z,0
2016-12-16T03:19:32.444Z,0
2016-12-16T03:20:32.427Z,0
2016-12-16T03:21:32.397Z,0
2016-12-16T03:22:32.381Z,0
2016-12-16T03:23:32.668Z,0
2016-12-16T03:24:32.334Z,0
2016-12-16T03:25:32.625Z,0
2016-12-16T03:26:32.294Z,0
2016-12-16T03:27:32.272Z,0
2016-12-16T03:28:32.244Z,0
2016-12-16T03:29:32.537Z,0
2016-12-16T03:30:32.199Z,0
2016-12-16T03:31:32.188Z,0
2016-12-16T03:32:32.159Z,0
2016-12-16T03:33:32.145Z,0
2016-12-16T03:34:32.435Z,0
2016-12-16T03:35:32.410Z,0
2016-12-16T03:36:32.390Z,0
2016-12-16T03:37:32.054Z,0
2016-12-16T03:38:32.025Z,0
2016-12-16T03:39:32.350Z,0
2016-12-16T03:40:31.983Z,0
2016-12-16T03:41:32.273Z,0
2016-12-16T03:42:31.942Z,0
2016-12-16T03:43:31.918Z,0
2016-12-16T03:44:32.207Z,0
2016-12-16T03:45:31.873Z,0
2016-12-16T03:46:31.847Z,0
2016-12-16T03:47:31.830Z,0
2016-12-16T03:48:32.124Z,0
2016-12-16T03:49:32.096Z,0
2016-12-16T03:50:31.763Z,0
2016-12-16T03:51:31.742Z,0
2016-12-16T03:52:31.724Z,0
2016-12-16T03:53:32.013Z,0
2016-12-16T03:54:32.002Z,0
2016-12-16T03:55:31.658Z,0
2016-12-16T03:56:31.959Z,0
2016-12-16T03:57:31.933Z,0
2016-12-16T03:58:31.907Z,0
2016-12-16T03:59:31.570Z,0
2016-12-16T04:00:31.867Z,0
2016-12-16T04:01:31.835Z,0
2016-12-16T04:02:31.512Z,0
2016-12-16T04:03:31.786Z,0
2016-12-16T04:04:31.486Z,0
2016-12-16T04:05:31.742Z,0
2016-12-16T04:06:31.723Z,0
2016-12-16T04:07:31.386Z,0
2016-12-16T04:08:31.679Z,0
2016-12-16T04:09:31.654Z,0
2016-12-16T04:10:31.322Z,0
2016-12-16T04:11:31.614Z,0
2016-12-16T04:12:31.593Z,0
2016-12-16T04:13:31.260Z,0
2016-12-16T04:14:31.235Z,0
2016-12-16T04:15:31.213Z,0
2016-12-16T04:16:31.190Z,0
2016-12-16T04:17:31.168Z,0
2016-12-16T04:18:31.144Z,0
2016-12-16T04:19:31.330Z,0
2016-12-16T04:20:31.104Z,0
2016-12-16T04:21:31.713Z,0
2016-12-16T04:22:31.060Z,0
2016-12-16T04:23:31.033Z,0
2016-12-16T04:24:31.328Z,0
2016-12-16T04:25:30.998Z,0
2016-12-16T04:26:30.967Z,0
2016-12-16T04:27:30.946Z,0
2016-12-16T04:28:30.919Z,0
2016-12-16T04:29:30.905Z,0
2016-12-16T04:30:30.882Z,0
2016-12-16T04:31:30.865Z,0
2016-12-16T04:32:31.147Z,0
2016-12-16T04:33:31.138Z,0
2016-12-16T04:34:30.787Z,0
2016-12-16T04:35:30.772Z,0
2016-12-16T04:36:30.752Z,0
2016-12-16T04:37:31.036Z,0
2016-12-16T04:38:30.703Z,0
2016-12-16T04:39:30.688Z,0
2016-12-16T04:40:30.656Z,0
2016-12-16T04:41:30.948Z,0
2016-12-16T04:42:30.608Z,0
2016-12-16T04:43:30.592Z,0
2016-12-16T04:44:30.576Z,0
2016-12-16T04:45:30.544Z,0
2016-12-16T04:46:30.845Z,0
2016-12-16T04:47:30.499Z,0
2016-12-16T04:48:30.801Z,0
2016-12-16T04:49:30.459Z,0
2016-12-16T04:50:30.433Z,0
2016-12-16T04:51:30.416Z,0
2016-12-16T04:52:30.705Z,0
2016-12-16T04:53:30.368Z,0
2016-12-16T04:54:30.345Z,0
2016-12-16T04:55:30.330Z,0
2016-12-16T04:56:30.962Z,0
2016-12-16T04:57:30.279Z,0
2016-12-16T04:58:30.570Z,0
2016-12-16T04:59:30.243Z,0
2016-12-16T05:00:30.540Z,0
2016-12-16T05:01:30.190Z,0
2016-12-16T05:02:30.171Z,0
2016-12-16T05:03:30.148Z,0
2016-12-16T05:04:30.120Z,0
2016-12-16T05:05:30.762Z,0
2016-12-16T05:06:30.077Z,0
2016-12-16T05:07:30.376Z,0
2016-12-16T05:08:30.032Z,0
2016-12-16T05:09:30.336Z,0
2016-12-16T05:10:30.311Z,0
2016-12-16T05:11:29.971Z,0
2016-12-16T05:12:30.569Z,0
2016-12-16T05:13:29.923Z,0
2016-12-16T05:14:29.906Z,0
2016-12-16T05:15:29.885Z,0
2016-12-16T05:16:29.860Z,0
2016-12-16T05:17:29.844Z,0
2016-12-16T05:18:29.814Z,0
2016-12-16T05:19:29.798Z,0
2016-12-16T05:20:30.118Z,0
2016-12-16T05:21:29.763Z,0
2016-12-16T05:22:29.733Z,0
2016-12-16T05:23:30.327Z,0
2016-12-16T05:24:29.686Z,0
2016-12-16T05:25:30.004Z,0
2016-12-16T05:26:29.635Z,0
2016-12-16T05:27:29.631Z,0
2016-12-16T05:28:29.597Z,0
2016-12-16T05:29:29.569Z,0
2016-12-16T05:30:29.868Z,0
2016-12-16T05:31:29.522Z,0
2016-12-16T05:32:29.505Z,0
2016-12-16T05:33:29.479Z,0
2016-12-16T05:34:29.468Z,0
2016-12-16T05:35:29.437Z,0
2016-12-16T05:36:29.410Z,0
2016-12-16T05:37:29.700Z,0
2016-12-16T05:38:29.366Z,0
2016-12-16T05:39:29.343Z,0
2016-12-16T05:40:29.322Z,0
2016-12-16T05:41:29.300Z,0
2016-12-16T05:42:29.598Z,0
2016-12-16T05:43:29.261Z,0
2016-12-16T05:44:29.864Z,0
2016-12-16T05:45:29.868Z,0
2016-12-16T05:46:29.512Z,0
2016-12-16T05:47:29.167Z,0
2016-12-16T05:48:29.267Z,0
2016-12-16T05:49:29.127Z,0
2016-12-16T05:50:29.418Z,0
2016-12-16T05:51:29.077Z,0
2016-12-16T05:52:29.086Z,0
2016-12-16T05:53:29.035Z,0
2016-12-16T05:54:29.329Z,0
2016-12-16T05:55:29.336Z,0
2016-12-16T05:56:28.962Z,0
2016-12-16T05:57:29.256Z,0
2016-12-16T05:58:28.920Z,0
2016-12-16T05:59:28.899Z,0
2016-12-16T06:00:28.882Z,0
2016-12-16T06:01:28.860Z,0
2016-12-16T06:02:29.159Z,0
2016-12-16T06:03:28.813Z,0
2016-12-16T06:04:28.788Z,0
2016-12-16T06:05:28.763Z,0
2016-12-16T06:06:28.744Z,0
2016-12-16T06:07:29.039Z,0
2016-12-16T06:08:28.705Z,0
2016-12-16T06:09:29.033Z,0
2016-12-16T06:10:28.676Z,0
2016-12-16T06:11:28.949Z,0
2016-12-16T06:12:28.933Z,0
2016-12-16T06:13:28.903Z,0
2016-12-16T06:14:28.583Z,0
2016-12-16T06:15:28.857Z,0
2016-12-16T06:16:28.830Z,0
2016-12-16T06:17:29.439Z,0
2016-12-16T06:18:28.471Z,0
2016-12-16T06:19:29.143Z,0
2016-12-16T06:20:28.447Z,0
2016-12-16T06:21:28.439Z,0
2016-12-16T06:22:28.396Z,0
2016-12-16T06:23:28.368Z,0
2016-12-16T06:24:28.342Z,0
2016-12-16T06:25:28.317Z,0
2016-12-16T06:26:28.295Z,0
2016-12-16T06:27:28.584Z,0
2016-12-16T06:28:28.256Z,0
2016-12-16T06:29:28.231Z,0
2016-12-16T06:30:28.206Z,0
2016-12-16T06:31:28.183Z,0
2016-12-16T06:32:28.164Z,0
2016-12-16T06:33:28.454Z,0
2016-12-16T06:34:28.743Z,0
2016-12-16T06:35:28.139Z,0
2016-12-16T06:36:28.077Z,0
2016-12-16T06:37:28.085Z,0
2016-12-16T06:38:28.032Z,0
2016-12-16T06:39:28.038Z,0
2016-12-16T06:40:27.984Z,0
2016-12-16T06:41:27.960Z,0
2016-12-16T06:42:27.937Z,0
2016-12-16T06:43:28.231Z,0
2016-12-16T06:44:27.890Z,0
2016-12-16T06:45:27.878Z,0
2016-12-16T06:46:27.850Z,0
2016-12-16T06:47:27.961Z,0
2016-12-16T06:48:27.811Z,0
2016-12-16T06:49:28.103Z,0
2016-12-16T06:50:27.765Z,0
2016-12-16T06:51:28.053Z,4
2016-12-16T06:52:27.715Z,0
2016-12-16T06:53:27.696Z,0
2016-12-16T06:54:27.672Z,4
2016-12-16T06:55:27.655Z,4
2016-12-16T06:56:27.954Z,4
2016-12-16T06:57:27.612Z,4
2016-12-16T06:58:27.589Z,4
2016-12-16T06:59:27.581Z,4
2016-12-16T07:00:27.857Z,8
2016-12-16T07:01:27.527Z,8
2016-12-16T07:02:27.490Z,8
2016-12-16T07:03:27.478Z,8
2016-12-16T07:04:27.769Z,8
2016-12-16T07:05:27.424Z,16
2016-12-16T07:06:27.402Z,12
2016-12-16T07:07:27.385Z,16
2016-12-16T07:08:27.361Z,20
2016-12-16T07:09:27.650Z,24
2016-12-16T07:10:27.630Z,24
2016-12-16T07:11:27.607Z,28
2016-12-16T07:12:27.273Z,36
2016-12-16T07:13:27.569Z,40
2016-12-16T07:14:27.543Z,40
2016-12-16T07:15:27.830Z,48
2016-12-16T07:16:27.503Z,56
2016-12-16T07:17:27.159Z,60
2016-12-16T07:18:27.451Z,68
2016-12-16T07:19:27.116Z,76
2016-12-16T07:20:27.091Z,84
2016-12-16T07:21:27.387Z,92
2016-12-16T07:22:27.370Z,104
2016-12-16T07:23:27.358Z,116
2016-12-16T07:24:27.004Z,128
2016-12-16T07:25:27.641Z,136
2016-12-16T07:26:26.971Z,152
2016-12-16T07:27:27.263Z,164
2016-12-16T07:28:27.232Z,176
2016-12-16T07:29:27.531Z,188
2016-12-16T07:30:26.871Z,196
2016-12-16T07:31:26.873Z,212
2016-12-16T07:32:27.149Z,224
2016-12-16T07:33:27.121Z,244
2016-12-16T07:34:26.783Z,256
2016-12-16T07:35:27.076Z,276
2016-12-16T07:36:26.733Z,292
2016-12-16T07:37:26.711Z,312
2016-12-16T07:38:27.008Z,332
2016-12-16T07:39:26.994Z,352
2016-12-16T07:40:26.675Z,376
2016-12-16T07:41:26.626Z,396
2016-12-16T07:42:26.914Z,424
2016-12-16T07:43:26.588Z,448
2016-12-16T07:44:26.876Z,476
2016-12-16T07:45:26.855Z,504
2016-12-16T07:46:26.516Z,532
2016-12-16T07:47:26.495Z,560
2016-12-16T07:48:26.475Z,588
2016-12-16T07:49:26.760Z,612
2016-12-16T07:50:26.423Z,640
2016-12-16T07:51:26.415Z,668
2016-12-16T07:52:26.388Z,696
2016-12-16T07:53:26.398Z,720
2016-12-16T07:54:26.346Z,752
2016-12-16T07:55:26.316Z,776
2016-12-16T07:56:26.295Z,804
2016-12-16T07:57:26.583Z,832
2016-12-16T07:58:26.258Z,860
2016-12-16T07:59:26.586Z,884
2016-12-16T08:00:26.206Z,916
2016-12-16T08:01:26.507Z,936
2016-12-16T08:02:26.161Z,956
2016-12-16T08:03:26.479Z,984
2016-12-16T08:04:26.111Z,1008
2016-12-16T08:05:26.431Z,1028
2016-12-16T08:06:26.434Z,1056
2016-12-16T08:07:26.065Z,1080
2016-12-16T08:08:26.027Z,1116
2016-12-16T08:09:26.005Z,1156
2016-12-16T08:10:25.991Z,1196
2016-12-16T08:11:26.505Z,1232
2016-12-16T08:12:25.955Z,1268
2016-12-16T08:13:26.250Z,1300
2016-12-16T08:14:25.904Z,1328
2016-12-16T08:15:25.998Z,1356
2016-12-16T08:16:25.861Z,1376
2016-12-16T08:17:25.881Z,1400
2016-12-16T08:18:25.811Z,1424
2016-12-16T08:19:26.150Z,1452
2016-12-16T08:20:26.281Z,1476
2016-12-16T08:21:25.842Z,1500
2016-12-16T08:22:25.717Z,1528
2016-12-16T08:23:25.697Z,1552
2016-12-16T08:24:25.989Z,1580
2016-12-16T08:25:25.973Z,1608
2016-12-16T08:26:25.782Z,1632
2016-12-16T08:27:25.610Z,1660
2016-12-16T08:28:25.595Z,1680
2016-12-16T08:29:25.565Z,1704
2016-12-16T08:30:25.863Z,1724
2016-12-16T08:31:25.525Z,1748
2016-12-16T08:32:25.506Z,1780
2016-12-16T08:33:25.487Z,1808
2016-12-16T08:34:25.765Z,1840
2016-12-16T08:35:25.751Z,1864
2016-12-16T08:36:25.416Z,1892
2016-12-16T08:37:25.403Z,1924
2016-12-16T08:38:25.689Z,1964
2016-12-16T08:39:25.350Z,1992
2016-12-16T08:40:25.327Z,2020
2016-12-16T08:41:25.307Z,2044
2016-12-16T08:42:25.289Z,2060
2016-12-16T08:43:25.260Z,2084
2016-12-16T08:44:25.246Z,2112
2016-12-16T08:45:25.220Z,2128
2016-12-16T08:46:25.196Z,2140
2016-12-16T08:47:25.801Z,2156
2016-12-16T08:48:25.154Z,2168
2016-12-16T08:49:25.134Z,2180
2016-12-16T08:50:25.108Z,2196
2016-12-16T08:51:25.409Z,2212
2016-12-16T08:52:25.381Z,2224
2016-12-16T08:53:25.048Z,2248
2016-12-16T08:54:25.029Z,2288
2016-12-16T08:55:25.003Z,2320
2016-12-16T08:56:24.986Z,2356
2016-12-16T08:57:24.964Z,2392
2016-12-16T08:58:25.256Z,2428
2016-12-16T08:59:24.917Z,2456
2016-12-16T09:00:24.904Z,2492
2016-12-16T09:01:24.901Z,2528
2016-12-16T09:02:24.857Z,2544
2016-12-16T09:03:25.150Z,2556
2016-12-16T09:04:24.819Z,2572
2016-12-16T09:05:24.795Z,2596
2016-12-16T09:06:24.782Z,2596
2016-12-16T09:07:25.183Z,2616
2016-12-16T09:08:24.743Z,2624
2016-12-16T09:09:24.737Z,2644
2016-12-16T09:10:24.688Z,2672
2016-12-16T09:11:24.997Z,2680
2016-12-16T09:12:24.672Z,2704
2016-12-16T09:13:24.627Z,2748
2016-12-16T09:14:24.604Z,2780
2016-12-16T09:15:24.589Z,2812
2016-12-16T09:16:24.882Z,2852
2016-12-16T09:17:24.540Z,2900
2016-12-16T09:18:24.526Z,2948
2016-12-16T09:19:24.503Z,2984
2016-12-16T09:20:24.481Z,3000
2016-12-16T09:21:24.464Z,3020
2016-12-16T09:22:24.446Z,3052
2016-12-16T09:23:24.415Z,3080
2016-12-16T09:24:24.712Z,3116
2016-12-16T09:25:24.383Z,3192
2016-12-16T09:26:24.410Z,3264
2016-12-16T09:27:24.972Z,3328
2016-12-16T09:28:24.318Z,3384
2016-12-16T09:29:24.621Z,3432
2016-12-16T09:30:24.587Z,3484
2016-12-16T09:31:24.570Z,3536
2016-12-16T09:32:24.231Z,3596
2016-12-16T09:33:24.214Z,3632
2016-12-16T09:34:24.192Z,3672
2016-12-16T09:35:24.500Z,3728
2016-12-16T09:36:24.182Z,3788
2016-12-16T09:37:24.497Z,3872
2016-12-16T09:38:24.123Z,3920
2016-12-16T09:39:24.410Z,3960
2016-12-16T09:40:24.390Z,4040
2016-12-16T09:41:24.058Z,4024
2016-12-16T09:42:24.369Z,3936
2016-12-16T09:43:24.020Z,3900
2016-12-16T09:44:24.624Z,3952
2016-12-16T09:45:24.287Z,4300
2016-12-16T09:46:23.956Z,4580
2016-12-16T09:47:24.253Z,4732
2016-12-16T09:48:23.911Z,4552
2016-12-16T09:49:24.211Z,4436
2016-12-16T09:50:23.881Z,4620
2016-12-16T09:51:23.847Z,5068
2016-12-16T09:52:24.148Z,5408
2016-12-16T09:53:24.130Z,5388
2016-12-16T09:54:23.797Z,5756
2016-12-16T09:55:23.769Z,6120
2016-12-16T09:56:23.785Z,5936
2016-12-16T09:57:23.739Z,6352
2016-12-16T09:58:23.715Z,6708
2016-12-16T09:59:23.704Z,6660
2016-12-16T10:00:24.006Z,6456
2016-12-16T10:01:23.660Z,6164
2016-12-16T10:02:23.644Z,6084
2016-12-16T10:03:23.635Z,6616
2016-12-16T10:04:23.611Z,7388
2016-12-16T10:05:23.599Z,7168
2016-12-16T10:06:23.883Z,7224
2016-12-16T10:07:23.557Z,7424
2016-12-16T10:08:23.539Z,7836
2016-12-16T10:09:23.832Z,8164
2016-12-16T10:10:23.538Z,8028
2016-12-16T10:11:23.490Z,7964
2016-12-16T10:12:23.473Z,7964
2016-12-16T10:13:23.475Z,8044
2016-12-16T10:14:23.641Z,7916
2016-12-16T10:15:23.420Z,7980
2016-12-16T10:16:23.725Z,8280
2016-12-16T10:17:23.392Z,8276
2016-12-16T10:18:23.393Z,7800
2016-12-16T10:19:23.672Z,6640
2016-12-16T10:20:23.871Z,7132
2016-12-16T10:21:23.644Z,8284
2016-12-16T10:22:23.318Z,7124
2016-12-16T10:23:23.615Z,6656
2016-12-16T10:24:23.611Z,6556
2016-12-16T10:25:23.270Z,6208
2016-12-16T10:26:23.263Z,6188
2016-12-16T10:27:23.269Z,6736
2016-12-16T10:28:23.239Z,7376
2016-12-16T10:29:23.560Z,7752
2016-12-16T10:30:23.203Z,8016
2016-12-16T10:31:23.507Z,8232
2016-12-16T10:32:23.178Z,7948
2016-12-16T10:33:24.021Z,7804
2016-12-16T10:34:23.151Z,7880
2016-12-16T10:35:23.446Z,7884
2016-12-16T10:36:23.114Z,7748
2016-12-16T10:37:23.102Z,8176
2016-12-16T10:38:23.090Z,8280
2016-12-16T10:39:23.078Z,7528
2016-12-16T10:40:23.378Z,7132
2016-12-16T10:41:23.363Z,6628
2016-12-16T10:42:23.035Z,7028
2016-12-16T10:43:23.022Z,7856
2016-12-16T10:44:23.015Z,7816
2016-12-16T10:45:22.992Z,7340
2016-12-16T10:46:23.299Z,7044
2016-12-16T10:47:22.970Z,7064
2016-12-16T10:48:22.952Z,7000
2016-12-16T10:49:22.937Z,6788
2016-12-16T10:50:23.247Z,6760
2016-12-16T10:51:22.908Z,7276
2016-12-16T10:52:22.918Z,7556
2016-12-16T10:53:23.198Z,7740
2016-12-16T10:54:22.869Z,8172
2016-12-16T10:55:22.855Z,8276
2016-12-16T10:56:22.846Z,8128
2016-12-16T10:57:22.828Z,8456
2016-12-16T10:58:22.817Z,8724
2016-12-16T10:59:22.809Z,9040
2016-12-16T11:00:22.891Z,9260
2016-12-16T11:01:23.110Z,9168
2016-12-16T11:02:23.155Z,8732
2016-12-16T11:03:22.766Z,8436
2016-12-16T11:04:22.734Z,8004
2016-12-16T11:05:23.041Z,7576
2016-12-16T11:06:22.712Z,7528
2016-12-16T11:07:22.697Z,8432
2016-12-16T11:08:22.690Z,8804
2016-12-16T11:09:22.984Z,8784
2016-12-16T11:10:22.659Z,9696
2016-12-16T11:11:22.643Z,9948
2016-12-16T11:12:22.634Z,9804
2016-12-16T11:13:22.627Z,9872
2016-12-16T11:14:22.921Z,9724
2016-12-16T11:15:22.598Z,9668
2016-12-16T11:16:22.576Z,9120
2016-12-16T11:17:22.877Z,8260
2016-12-16T11:18:22.861Z,7732
2016-12-16T11:19:22.855Z,7308
2016-12-16T11:20:22.530Z,7008
2016-12-16T11:21:22.513Z,7000
2016-12-16T11:22:22.503Z,6904
2016-12-16T11:23:22.801Z,6576
2016-12-16T11:24:22.470Z,6360
2016-12-16T11:25:22.462Z,6248
2016-12-16T11:26:22.762Z,6136
2016-12-16T11:27:22.438Z,6040
2016-12-16T11:28:22.417Z,5976
2016-12-16T11:29:22.410Z,5908
2016-12-16T11:30:22.450Z,5824
2016-12-16T11:31:22.703Z,5792
2016-12-16T11:32:22.373Z,5800
2016-12-16T11:33:22.378Z,5788
2016-12-16T11:34:22.343Z,5788
2016-12-16T11:35:22.331Z,5796
2016-12-16T11:36:22.317Z,5792
2016-12-16T11:37:22.618Z,5788
2016-12-16T11:38:22.289Z,5804
2016-12-16T11:39:22.302Z,5804
2016-12-16T11:40:22.891Z,5816
2016-12-16T11:41:22.622Z,5820
2016-12-16T11:42:22.547Z,5820
2016-12-16T11:43:22.215Z,5836
2016-12-16T11:44:22.212Z,5884
2016-12-16T11:45:22.203Z,5920
2016-12-16T11:46:22.497Z,5960
2016-12-16T11:47:22.162Z,6016
2016-12-16T11:48:22.150Z,6012
2016-12-16T11:49:22.439Z,6008
2016-12-16T11:50:22.118Z,6024
2016-12-16T11:51:22.099Z,6048
2016-12-16T11:52:22.401Z,6084
2016-12-16T11:53:22.076Z,6128
2016-12-16T11:54:22.374Z,6164
2016-12-16T11:55:22.045Z,6192
2016-12-16T11:56:22.040Z,6228
2016-12-16T11:57:22.643Z,6280
2016-12-16T11:58:22.313Z,6324
2016-12-16T11:59:21.983Z,6344
2016-12-16T12:00:21.968Z,6388
2016-12-16T12:01:21.955Z,6484
2016-12-16T12:02:21.945Z,6584
2016-12-16T12:03:22.237Z,6700
2016-12-16T12:04:22.544Z,6828
2016-12-16T12:05:21.896Z,6956
2016-12-16T12:06:22.192Z,7100
2016-12-16T12:07:22.177Z,7292
2016-12-16T12:08:21.874Z,7584
2016-12-16T12:09:21.834Z,8644
2016-12-16T12:10:21.819Z,10420
2016-12-16T12:11:21.806Z,11492
2016-12-16T12:12:21.792Z,11496
2016-12-16T12:13:22.089Z,11048
2016-12-16T12:14:22.080Z,10648
2016-12-16T12:15:21.744Z,10736
2016-12-16T12:16:21.764Z,11300
2016-12-16T12:17:21.774Z,11980
2016-12-16T12:18:21.703Z,12476
2016-12-16T12:19:22.094Z,12596
2016-12-16T12:20:21.895Z,12420
2016-12-16T12:21:21.668Z,12040
2016-12-16T12:22:22.281Z,11744
2016-12-16T12:23:21.644Z,11724
2016-12-16T12:24:21.629Z,11648
2016-12-16T12:25:22.247Z,11428
2016-12-16T12:26:21.607Z,11028
2016-12-16T12:27:21.601Z,10520
2016-12-16T12:28:21.901Z,10228
2016-12-16T12:29:21.581Z,10116
2016-12-16T12:30:21.722Z,10128
2016-12-16T12:31:21.556Z,10208
2016-12-16T12:32:21.546Z,10052
2016-12-16T12:33:21.542Z,9720
2016-12-16T12:34:21.533Z,9652
2016-12-16T12:35:21.520Z,9920
2016-12-16T12:36:21.508Z,10448
2016-12-16T12:37:21.531Z,11068
2016-12-16T12:38:21.491Z,11632
2016-12-16T12:39:21.798Z,11940
2016-12-16T12:40:21.473Z,11868
2016-12-16T12:41:21.470Z,11672
2016-12-16T12:42:21.490Z,11508
2016-12-16T12:43:21.447Z,11564
2016-12-16T12:44:21.442Z,11724
2016-12-16T12:45:21.430Z,11732
2016-12-16T12:46:21.428Z,11480
2016-12-16T12:47:21.420Z,11164
2016-12-16T12:48:21.411Z,10804
2016-12-16T12:49:21.408Z,10404
2016-12-16T12:50:21.396Z,10180
2016-12-16T12:51:21.417Z,10144
2016-12-16T12:52:21.698Z,10040
2016-12-16T12:53:21.376Z,9784
2016-12-16T12:54:21.368Z,9516
2016-12-16T12:55:21.367Z,9440
2016-12-16T12:56:21.665Z,9664
2016-12-16T12:57:21.674Z,10012
2016-12-16T12:58:21.654Z,10308
2016-12-16T12:59:21.329Z,10556
2016-12-16T13:00:21.325Z,10612
2016-12-16T13:01:21.318Z,10580
2016-12-16T13:02:21.307Z,10572
2016-12-16T13:03:21.615Z,10616
2016-12-16T13:04:21.610Z,10692
2016-12-16T13:05:21.303Z,10780
2016-12-16T13:06:21.601Z,10832
2016-12-16T13:07:21.591Z,10768
2016-12-16T13:08:21.271Z,10500
2016-12-16T13:09:21.473Z,9916
2016-12-16T13:10:21.266Z,9328
2016-12-16T13:11:21.257Z,8760
2016-12-16T13:12:21.247Z,8460
2016-12-16T13:13:21.237Z,8304
2016-12-16T13:14:21.238Z,8188
2016-12-16T13:15:21.231Z,8004
2016-12-16T13:16:21.228Z,7808
2016-12-16T13:17:21.532Z,7776
2016-12-16T13:18:21.205Z,7936
2016-12-16T13:19:21.201Z,8076
2016-12-16T13:20:21.500Z,8136
2016-12-16T13:21:21.221Z,8232
2016-12-16T13:22:21.179Z,8416
2016-12-16T13:23:21.490Z,8632
2016-12-16T13:24:21.164Z,8712
2016-12-16T13:25:21.169Z,8560
2016-12-16T13:26:21.471Z,8444
2016-12-16T13:27:21.144Z,8284
2016-12-16T13:28:21.139Z,8052
2016-12-16T13:29:21.141Z,7904
2016-12-16T13:30:21.127Z,7672
2016-12-16T13:31:21.118Z,7632
2016-12-16T13:32:21.113Z,7460
2016-12-16T13:33:21.108Z,7380
2016-12-16T13:34:21.725Z,7240
2016-12-16T13:35:21.405Z,7072
2016-12-16T13:36:21.086Z,6856
2016-12-16T13:37:21.074Z,6664
2016-12-16T13:38:21.242Z,6392
2016-12-16T13:39:21.077Z,6088
2016-12-16T13:40:21.067Z,5920
2016-12-16T13:41:21.369Z,5752
2016-12-16T13:42:21.367Z,5520
2016-12-16T13:43:21.035Z,5344
2016-12-16T13:44:21.023Z,5236
2016-12-16T13:45:21.028Z,4848
2016-12-16T13:46:21.024Z,4176
2016-12-16T13:47:21.003Z,3792
2016-12-16T13:48:21.000Z,3628
2016-12-16T13:49:21.309Z,3508
2016-12-16T13:50:20.977Z,3404
2016-12-16T13:51:21.302Z,3312
2016-12-16T13:52:20.971Z,3244
2016-12-16T13:53:20.985Z,3192
2016-12-16T13:54:20.952Z,3148
2016-12-16T13:55:20.951Z,3104
2016-12-16T13:56:20.927Z,3076
2016-12-16T13:57:21.232Z,3048
2016-12-16T13:58:20.915Z,3012
2016-12-16T13:59:21.544Z,2968
2016-12-16T14:00:21.224Z,2932
2016-12-16T14:01:21.207Z,2904